sensor_id;sensor_type;location;lat;lon;timestamp;temperature;humidity
30825;DHT22;17550;45.486;12.222;2023-05-23T00:00:41;20.90;96.60
30825;DHT22;17550;45.486;12.222;2023-05-23T00:03:07;20.80;97.00
30825;DHT22;17550;45.486;12.222;2023-05-23T00:05:33;20.80;96.90
30825;DHT22;17550;45.486;12.222;2023-05-23T00:08:02;20.70;97.10
30825;DHT22;17550;45.486;12.222;2023-05-23T00:10:28;20.70;97.00
30825;DHT22;17550;45.486;12.222;2023-05-23T00:12:54;20.70;96.80
30825;DHT22;17550;45.486;12.222;2023-05-23T00:15:20;20.50;97.10
30825;DHT22;17550;45.486;12.222;2023-05-23T00:17:47;20.50;97.30
30825;DHT22;17550;45.486;12.222;2023-05-23T00:20:12;20.40;97.40
30825;DHT22;17550;45.486;12.222;2023-05-23T00:22:38;20.40;97.40
30825;DHT22;17550;45.486;12.222;2023-05-23T00:25:08;20.40;97.50
30825;DHT22;17550;45.486;12.222;2023-05-23T00:27:34;20.40;97.60
30825;DHT22;17550;45.486;12.222;2023-05-23T00:30:00;20.30;97.50
30825;DHT22;17550;45.486;12.222;2023-05-23T00:32:26;20.30;97.50
30825;DHT22;17550;45.486;12.222;2023-05-23T00:34:51;20.30;97.50
30825;DHT22;17550;45.486;12.222;2023-05-23T00:37:19;20.30;97.60
30825;DHT22;17550;45.486;12.222;2023-05-23T00:39:45;20.30;97.50
30825;DHT22;17550;45.486;12.222;2023-05-23T00:42:10;20.30;97.70
30825;DHT22;17550;45.486;12.222;2023-05-23T00:44:36;20.20;97.60
30825;DHT22;17550;45.486;12.222;2023-05-23T00:47:02;20.20;97.70
30825;DHT22;17550;45.486;12.222;2023-05-23T00:49:28;20.10;97.80
30825;DHT22;17550;45.486;12.222;2023-05-23T00:51:54;20.10;97.80
30825;DHT22;17550;45.486;12.222;2023-05-23T00:54:24;20.10;98.10
30825;DHT22;17550;45.486;12.222;2023-05-23T00:56:52;20.00;97.80
30825;DHT22;17550;45.486;12.222;2023-05-23T00:59:18;19.90;97.90
30825;DHT22;17550;45.486;12.222;2023-05-23T01:01:47;19.90;98.00
30825;DHT22;17550;45.486;12.222;2023-05-23T01:04:12;19.90;98.20
30825;DHT22;17550;45.486;12.222;2023-05-23T01:06:38;19.70;98.30
30825;DHT22;17550;45.486;12.222;2023-05-23T01:09:05;19.80;98.40
30825;DHT22;17550;45.486;12.222;2023-05-23T01:11:42;19.70;98.50
30825;DHT22;17550;45.486;12.222;2023-05-23T01:14:13;19.60;98.70
30825;DHT22;17550;45.486;12.222;2023-05-23T01:16:54;19.50;98.80
30825;DHT22;17550;45.486;12.222;2023-05-23T01:22:15;19.30;99.60
30825;DHT22;17550;45.486;12.222;2023-05-23T01:24:56;19.20;99.90
30825;DHT22;17550;45.486;12.222;2023-05-23T01:27:23;19.00;99.90
30825;DHT22;17550;45.486;12.222;2023-05-23T01:29:57;18.90;99.90
30825;DHT22;17550;45.486;12.222;2023-05-23T01:32:25;18.80;99.90
30825;DHT22;17550;45.486;12.222;2023-05-23T01:34:52;18.70;99.90
30825;DHT22;17550;45.486;12.222;2023-05-23T01:37:19;18.70;99.90
30825;DHT22;17550;45.486;12.222;2023-05-23T01:39:45;18.60;99.90
30825;DHT22;17550;45.486;12.222;2023-05-23T01:42:11;18.60;99.90
30825;DHT22;17550;45.486;12.222;2023-05-23T01:44:38;18.50;99.90
30825;DHT22;17550;45.486;12.222;2023-05-23T01:47:06;18.50;99.90
30825;DHT22;17550;45.486;12.222;2023-05-23T01:49:33;18.50;99.90
30825;DHT22;17550;45.486;12.222;2023-05-23T01:52:01;18.50;99.90
30825;DHT22;17550;45.486;12.222;2023-05-23T01:54:27;18.50;99.90
30825;DHT22;17550;45.486;12.222;2023-05-23T01:56:56;18.50;99.90
30825;DHT22;17550;45.486;12.222;2023-05-23T01:59:22;18.50;99.90
30825;DHT22;17550;45.486;12.222;2023-05-23T02:01:48;18.50;99.90
30825;DHT22;17550;45.486;12.222;2023-05-23T02:04:14;18.60;99.90
30825;DHT22;17550;45.486;12.222;2023-05-23T02:06:40;18.60;99.90
30825;DHT22;17550;45.486;12.222;2023-05-23T02:09:06;18.70;99.90
30825;DHT22;17550;45.486;12.222;2023-05-23T02:11:34;18.70;99.90
30825;DHT22;17550;45.486;12.222;2023-05-23T02:13:59;18.70;99.90
30825;DHT22;17550;45.486;12.222;2023-05-23T02:16:26;18.70;99.90
30825;DHT22;17550;45.486;12.222;2023-05-23T02:18:52;18.70;99.90
30825;DHT22;17550;45.486;12.222;2023-05-23T02:21:23;18.80;99.90
30825;DHT22;17550;45.486;12.222;2023-05-23T02:23:48;18.90;99.90
30825;DHT22;17550;45.486;12.222;2023-05-23T02:26:14;18.80;99.90
30825;DHT22;17550;45.486;12.222;2023-05-23T02:28:40;18.90;99.90
30825;DHT22;17550;45.486;12.222;2023-05-23T02:31:06;18.90;99.90
30825;DHT22;17550;45.486;12.222;2023-05-23T02:33:32;18.90;99.90
30825;DHT22;17550;45.486;12.222;2023-05-23T02:35:57;18.90;99.90
30825;DHT22;17550;45.486;12.222;2023-05-23T02:38:23;18.90;99.90
30825;DHT22;17550;45.486;12.222;2023-05-23T02:40:51;18.90;99.90
30825;DHT22;17550;45.486;12.222;2023-05-23T02:43:18;18.90;99.90
30825;DHT22;17550;45.486;12.222;2023-05-23T02:45:44;18.90;99.90
30825;DHT22;17550;45.486;12.222;2023-05-23T02:48:10;18.90;99.90
30825;DHT22;17550;45.486;12.222;2023-05-23T02:50:36;18.90;99.90
30825;DHT22;17550;45.486;12.222;2023-05-23T02:53:02;18.90;99.90
30825;DHT22;17550;45.486;12.222;2023-05-23T02:55:28;18.90;99.90
30825;DHT22;17550;45.486;12.222;2023-05-23T02:57:56;18.80;99.90
30825;DHT22;17550;45.486;12.222;2023-05-23T03:00:23;18.70;99.90
30825;DHT22;17550;45.486;12.222;2023-05-23T03:02:49;18.70;99.90
30825;DHT22;17550;45.486;12.222;2023-05-23T03:05:15;18.60;99.90
30825;DHT22;17550;45.486;12.222;2023-05-23T03:07:40;18.60;99.90
30825;DHT22;17550;45.486;12.222;2023-05-23T03:10:07;18.60;99.90
30825;DHT22;17550;45.486;12.222;2023-05-23T03:12:33;18.60;99.90
30825;DHT22;17550;45.486;12.222;2023-05-23T03:14:58;18.60;99.90
30825;DHT22;17550;45.486;12.222;2023-05-23T03:17:24;18.60;99.90
30825;DHT22;17550;45.486;12.222;2023-05-23T03:19:50;18.60;99.90
30825;DHT22;17550;45.486;12.222;2023-05-23T03:22:16;18.70;99.90
30825;DHT22;17550;45.486;12.222;2023-05-23T03:24:42;18.60;99.90
30825;DHT22;17550;45.486;12.222;2023-05-23T03:27:08;18.60;99.90
30825;DHT22;17550;45.486;12.222;2023-05-23T03:29:33;18.60;99.90
30825;DHT22;17550;45.486;12.222;2023-05-23T03:31:59;18.60;99.90
30825;DHT22;17550;45.486;12.222;2023-05-23T03:34:25;18.60;99.90
30825;DHT22;17550;45.486;12.222;2023-05-23T03:36:51;18.60;99.90
30825;DHT22;17550;45.486;12.222;2023-05-23T03:39:17;18.60;99.90
30825;DHT22;17550;45.486;12.222;2023-05-23T03:41:43;18.60;99.90
30825;DHT22;17550;45.486;12.222;2023-05-23T03:44:09;18.60;99.90
30825;DHT22;17550;45.486;12.222;2023-05-23T03:46:34;18.70;99.90
30825;DHT22;17550;45.486;12.222;2023-05-23T03:49:00;18.80;99.90
30825;DHT22;17550;45.486;12.222;2023-05-23T03:51:26;18.80;99.90
30825;DHT22;17550;45.486;12.222;2023-05-23T03:53:52;18.90;99.90
30825;DHT22;17550;45.486;12.222;2023-05-23T03:56:18;19.10;99.90
30825;DHT22;17550;45.486;12.222;2023-05-23T03:58:44;19.20;99.90
30825;DHT22;17550;45.486;12.222;2023-05-23T04:01:10;19.40;99.90
30825;DHT22;17550;45.486;12.222;2023-05-23T04:03:36;19.60;99.90
30825;DHT22;17550;45.486;12.222;2023-05-23T04:06:02;19.90;99.90
30825;DHT22;17550;45.486;12.222;2023-05-23T04:08:28;20.30;99.90
30825;DHT22;17550;45.486;12.222;2023-05-23T04:10:59;20.60;99.90
30825;DHT22;17550;45.486;12.222;2023-05-23T04:13:25;21.00;99.80
30825;DHT22;17550;45.486;12.222;2023-05-23T04:15:51;21.40;98.70
30825;DHT22;17550;45.486;12.222;2023-05-23T04:18:17;21.70;98.50
30825;DHT22;17550;45.486;12.222;2023-05-23T04:20:42;22.00;98.00
30825;DHT22;17550;45.486;12.222;2023-05-23T04:23:08;22.30;97.50
30825;DHT22;17550;45.486;12.222;2023-05-23T04:25:34;22.70;97.00
30825;DHT22;17550;45.486;12.222;2023-05-23T04:27:59;23.10;96.40
30825;DHT22;17550;45.486;12.222;2023-05-23T04:30:25;23.30;95.70
30825;DHT22;17550;45.486;12.222;2023-05-23T04:32:51;23.40;95.60
30825;DHT22;17550;45.486;12.222;2023-05-23T04:35:18;23.70;94.80
30825;DHT22;17550;45.486;12.222;2023-05-23T04:37:43;23.90;94.50
30825;DHT22;17550;45.486;12.222;2023-05-23T04:40:10;24.30;94.00
30825;DHT22;17550;45.486;12.222;2023-05-23T04:42:37;24.70;93.30
30825;DHT22;17550;45.486;12.222;2023-05-23T04:45:07;25.20;92.50
30825;DHT22;17550;45.486;12.222;2023-05-23T04:47:33;25.80;92.10
30825;DHT22;17550;45.486;12.222;2023-05-23T04:49:59;26.30;91.60
30825;DHT22;17550;45.486;12.222;2023-05-23T04:52:26;26.70;90.80
30825;DHT22;17550;45.486;12.222;2023-05-23T04:54:52;27.10;90.20
30825;DHT22;17550;45.486;12.222;2023-05-23T04:57:18;27.40;89.20
30825;DHT22;17550;45.486;12.222;2023-05-23T04:59:44;27.50;88.80
30825;DHT22;17550;45.486;12.222;2023-05-23T05:02:10;27.80;88.00
30825;DHT22;17550;45.486;12.222;2023-05-23T05:04:36;28.20;86.90
30825;DHT22;17550;45.486;12.222;2023-05-23T05:07:02;28.30;86.10
30825;DHT22;17550;45.486;12.222;2023-05-23T05:09:28;28.40;86.00
30825;DHT22;17550;45.486;12.222;2023-05-23T05:11:55;28.40;85.00
30825;DHT22;17550;45.486;12.222;2023-05-23T05:14:20;28.60;84.90
30825;DHT22;17550;45.486;12.222;2023-05-23T05:16:46;29.10;84.30
30825;DHT22;17550;45.486;12.222;2023-05-23T05:19:13;29.50;83.50
30825;DHT22;17550;45.486;12.222;2023-05-23T05:21:39;29.80;82.20
30825;DHT22;17550;45.486;12.222;2023-05-23T05:24:05;29.80;81.60
30825;DHT22;17550;45.486;12.222;2023-05-23T05:26:34;29.40;82.40
30825;DHT22;17550;45.486;12.222;2023-05-23T05:29:01;28.60;83.40
30825;DHT22;17550;45.486;12.222;2023-05-23T05:31:27;27.40;84.90
30825;DHT22;17550;45.486;12.222;2023-05-23T05:33:54;26.60;86.90
30825;DHT22;17550;45.486;12.222;2023-05-23T05:36:20;26.00;88.90
30825;DHT22;17550;45.486;12.222;2023-05-23T05:38:46;25.70;89.20
30825;DHT22;17550;45.486;12.222;2023-05-23T05:41:12;25.40;89.90
30825;DHT22;17550;45.486;12.222;2023-05-23T05:43:38;25.20;90.10
30825;DHT22;17550;45.486;12.222;2023-05-23T05:46:04;25.10;90.40
30825;DHT22;17550;45.486;12.222;2023-05-23T05:48:30;25.00;90.60
30825;DHT22;17550;45.486;12.222;2023-05-23T05:50:55;25.00;90.80
30825;DHT22;17550;45.486;12.222;2023-05-23T05:53:21;25.00;90.80
30825;DHT22;17550;45.486;12.222;2023-05-23T05:55:48;25.00;90.90
30825;DHT22;17550;45.486;12.222;2023-05-23T05:58:14;24.80;90.70
30825;DHT22;17550;45.486;12.222;2023-05-23T06:00:39;24.60;90.90
30825;DHT22;17550;45.486;12.222;2023-05-23T06:03:07;24.40;91.50
30825;DHT22;17550;45.486;12.222;2023-05-23T06:05:33;24.40;91.90
30825;DHT22;17550;45.486;12.222;2023-05-23T06:07:59;24.40;92.10
30825;DHT22;17550;45.486;12.222;2023-05-23T06:10:25;24.40;92.00
30825;DHT22;17550;45.486;12.222;2023-05-23T06:12:50;24.50;91.80
30825;DHT22;17550;45.486;12.222;2023-05-23T06:15:16;24.40;91.60
30825;DHT22;17550;45.486;12.222;2023-05-23T06:17:42;24.30;91.80
30825;DHT22;17550;45.486;12.222;2023-05-23T06:20:09;24.20;91.90
30825;DHT22;17550;45.486;12.222;2023-05-23T06:22:35;24.10;92.00
30825;DHT22;17550;45.486;12.222;2023-05-23T06:25:01;24.10;92.10
30825;DHT22;17550;45.486;12.222;2023-05-23T06:27:27;24.30;91.90
30825;DHT22;17550;45.486;12.222;2023-05-23T06:29:53;24.30;91.30
30825;DHT22;17550;45.486;12.222;2023-05-23T06:32:18;24.40;91.20
30825;DHT22;17550;45.486;12.222;2023-05-23T06:34:44;24.40;91.10
30825;DHT22;17550;45.486;12.222;2023-05-23T06:37:10;24.10;91.60
30825;DHT22;17550;45.486;12.222;2023-05-23T06:39:35;24.00;92.20
30825;DHT22;17550;45.486;12.222;2023-05-23T06:42:01;24.10;92.50
30825;DHT22;17550;45.486;12.222;2023-05-23T06:44:27;24.30;92.40
30825;DHT22;17550;45.486;12.222;2023-05-23T06:46:52;24.60;92.40
30825;DHT22;17550;45.486;12.222;2023-05-23T06:49:23;24.80;91.10
30825;DHT22;17550;45.486;12.222;2023-05-23T06:51:49;24.90;91.10
30825;DHT22;17550;45.486;12.222;2023-05-23T06:54:16;25.00;90.30
30825;DHT22;17550;45.486;12.222;2023-05-23T06:56:41;24.90;90.00
30825;DHT22;17550;45.486;12.222;2023-05-23T06:59:07;24.90;90.00
30825;DHT22;17550;45.486;12.222;2023-05-23T07:01:33;24.80;90.10
30825;DHT22;17550;45.486;12.222;2023-05-23T07:03:58;24.80;90.10
30825;DHT22;17550;45.486;12.222;2023-05-23T07:06:24;24.90;90.50
30825;DHT22;17550;45.486;12.222;2023-05-23T07:08:52;25.00;90.60
30825;DHT22;17550;45.486;12.222;2023-05-23T07:11:19;25.30;90.70
30825;DHT22;17550;45.486;12.222;2023-05-23T07:13:45;25.50;90.50
30825;DHT22;17550;45.486;12.222;2023-05-23T07:16:11;25.50;89.90
30825;DHT22;17550;45.486;12.222;2023-05-23T07:18:37;25.50;90.30
30825;DHT22;17550;45.486;12.222;2023-05-23T07:21:03;25.50;90.30
30825;DHT22;17550;45.486;12.222;2023-05-23T07:23:31;25.50;89.70
30825;DHT22;17550;45.486;12.222;2023-05-23T07:25:59;25.50;88.70
30825;DHT22;17550;45.486;12.222;2023-05-23T07:28:25;25.60;89.80
30825;DHT22;17550;45.486;12.222;2023-05-23T07:30:50;25.70;88.90
30825;DHT22;17550;45.486;12.222;2023-05-23T07:33:16;25.90;89.00
30825;DHT22;17550;45.486;12.222;2023-05-23T07:35:43;25.90;86.90
30825;DHT22;17550;45.486;12.222;2023-05-23T07:38:08;26.00;88.00
30825;DHT22;17550;45.486;12.222;2023-05-23T07:40:35;26.20;88.00
30825;DHT22;17550;45.486;12.222;2023-05-23T07:43:03;26.30;87.20
30825;DHT22;17550;45.486;12.222;2023-05-23T07:45:30;26.30;87.60
30825;DHT22;17550;45.486;12.222;2023-05-23T07:47:55;26.20;87.40
30825;DHT22;17550;45.486;12.222;2023-05-23T07:50:21;26.30;86.60
30825;DHT22;17550;45.486;12.222;2023-05-23T07:52:47;26.40;85.70
30825;DHT22;17550;45.486;12.222;2023-05-23T07:55:15;26.30;87.70
30825;DHT22;17550;45.486;12.222;2023-05-23T07:57:41;26.30;87.50
30825;DHT22;17550;45.486;12.222;2023-05-23T08:00:07;26.40;86.10
30825;DHT22;17550;45.486;12.222;2023-05-23T08:02:34;26.40;86.50
30825;DHT22;17550;45.486;12.222;2023-05-23T08:05:00;26.20;85.90
30825;DHT22;17550;45.486;12.222;2023-05-23T08:07:26;26.30;85.70
30825;DHT22;17550;45.486;12.222;2023-05-23T08:09:51;26.50;87.00
30825;DHT22;17550;45.486;12.222;2023-05-23T08:12:17;26.60;85.20
30825;DHT22;17550;45.486;12.222;2023-05-23T08:14:46;26.70;84.90
30825;DHT22;17550;45.486;12.222;2023-05-23T08:17:12;26.80;85.60
30825;DHT22;17550;45.486;12.222;2023-05-23T08:19:38;26.70;86.00
30825;DHT22;17550;45.486;12.222;2023-05-23T08:22:04;26.60;85.70
30825;DHT22;17550;45.486;12.222;2023-05-23T08:24:30;26.70;85.40
30825;DHT22;17550;45.486;12.222;2023-05-23T08:26:56;26.60;85.50
30825;DHT22;17550;45.486;12.222;2023-05-23T08:29:21;26.50;84.80
30825;DHT22;17550;45.486;12.222;2023-05-23T08:31:47;26.70;85.50
30825;DHT22;17550;45.486;12.222;2023-05-23T08:34:13;26.80;86.10
30825;DHT22;17550;45.486;12.222;2023-05-23T08:36:39;27.00;85.50
30825;DHT22;17550;45.486;12.222;2023-05-23T08:39:07;27.10;84.80
30825;DHT22;17550;45.486;12.222;2023-05-23T08:41:34;27.20;84.70
30825;DHT22;17550;45.486;12.222;2023-05-23T08:44:00;27.40;84.50
30825;DHT22;17550;45.486;12.222;2023-05-23T08:46:26;27.60;85.50
30825;DHT22;17550;45.486;12.222;2023-05-23T08:48:53;27.70;84.60
30825;DHT22;17550;45.486;12.222;2023-05-23T08:51:24;27.70;84.90
30825;DHT22;17550;45.486;12.222;2023-05-23T08:53:51;27.80;85.50
30825;DHT22;17550;45.486;12.222;2023-05-23T08:56:19;27.90;85.10
30825;DHT22;17550;45.486;12.222;2023-05-23T08:58:45;28.10;84.90
30825;DHT22;17550;45.486;12.222;2023-05-23T09:01:13;28.20;84.80
30825;DHT22;17550;45.486;12.222;2023-05-23T09:03:39;28.20;84.20
30825;DHT22;17550;45.486;12.222;2023-05-23T09:06:08;28.30;82.20
30825;DHT22;17550;45.486;12.222;2023-05-23T09:08:34;28.10;81.80
30825;DHT22;17550;45.486;12.222;2023-05-23T09:11:01;28.20;82.50
30825;DHT22;17550;45.486;12.222;2023-05-23T09:13:29;28.30;80.80
30825;DHT22;17550;45.486;12.222;2023-05-23T09:16:03;28.40;81.60
30825;DHT22;17550;45.486;12.222;2023-05-23T09:18:42;28.50;81.70
30825;DHT22;17550;45.486;12.222;2023-05-23T09:21:10;28.50;79.50
30825;DHT22;17550;45.486;12.222;2023-05-23T09:23:37;28.70;80.50
30825;DHT22;17550;45.486;12.222;2023-05-23T09:26:07;28.90;81.50
30825;DHT22;17550;45.486;12.222;2023-05-23T09:28:35;29.00;79.60
30825;DHT22;17550;45.486;12.222;2023-05-23T09:31:03;28.90;79.40
30825;DHT22;17550;45.486;12.222;2023-05-23T09:33:44;29.00;77.60
30825;DHT22;17550;45.486;12.222;2023-05-23T09:36:12;28.90;78.50
30825;DHT22;17550;45.486;12.222;2023-05-23T09:38:42;29.00;78.40
30825;DHT22;17550;45.486;12.222;2023-05-23T09:41:08;29.10;78.70
30825;DHT22;17550;45.486;12.222;2023-05-23T09:43:48;29.00;78.60
30825;DHT22;17550;45.486;12.222;2023-05-23T09:46:14;28.90;77.20
30825;DHT22;17550;45.486;12.222;2023-05-23T09:48:48;29.00;77.90
30825;DHT22;17550;45.486;12.222;2023-05-23T09:51:18;29.10;77.70
30825;DHT22;17550;45.486;12.222;2023-05-23T09:53:45;29.20;77.80
30825;DHT22;17550;45.486;12.222;2023-05-23T09:56:11;29.50;79.10
30825;DHT22;17550;45.486;12.222;2023-05-23T09:58:38;29.60;78.80
30825;DHT22;17550;45.486;12.222;2023-05-23T10:01:09;29.50;78.90
30825;DHT22;17550;45.486;12.222;2023-05-23T10:03:51;29.60;78.20
30825;DHT22;17550;45.486;12.222;2023-05-23T10:06:43;29.60;77.90
30825;DHT22;17550;45.486;12.222;2023-05-23T10:09:16;29.50;78.20
30825;DHT22;17550;45.486;12.222;2023-05-23T10:14:15;29.50;78.00
30825;DHT22;17550;45.486;12.222;2023-05-23T10:17:01;29.50;78.90
30825;DHT22;17550;45.486;12.222;2023-05-23T10:19:50;29.40;78.70
30825;DHT22;17550;45.486;12.222;2023-05-23T10:22:18;29.50;78.80
30825;DHT22;17550;45.486;12.222;2023-05-23T10:24:44;29.60;80.50
30825;DHT22;17550;45.486;12.222;2023-05-23T10:27:11;29.70;78.90
30825;DHT22;17550;45.486;12.222;2023-05-23T10:29:37;29.80;78.30
30825;DHT22;17550;45.486;12.222;2023-05-23T10:32:04;29.70;79.10
30825;DHT22;17550;45.486;12.222;2023-05-23T10:37:30;29.80;80.40
30825;DHT22;17550;45.486;12.222;2023-05-23T10:40:21;29.80;78.90
30825;DHT22;17550;45.486;12.222;2023-05-23T10:43:09;29.80;78.80
30825;DHT22;17550;45.486;12.222;2023-05-23T10:45:41;29.90;79.80
30825;DHT22;17550;45.486;12.222;2023-05-23T10:48:30;30.00;78.70
30825;DHT22;17550;45.486;12.222;2023-05-23T10:53:29;30.10;79.90
30825;DHT22;17550;45.486;12.222;2023-05-23T10:55:55;30.10;78.10
30825;DHT22;17550;45.486;12.222;2023-05-23T10:58:21;30.20;78.50
30825;DHT22;17550;45.486;12.222;2023-05-23T11:00:54;30.30;79.80
30825;DHT22;17550;45.486;12.222;2023-05-23T11:06:00;30.50;79.00
30825;DHT22;17550;45.486;12.222;2023-05-23T11:08:28;30.40;79.10
30825;DHT22;17550;45.486;12.222;2023-05-23T11:11:02;30.40;78.10
30825;DHT22;17550;45.486;12.222;2023-05-23T11:13:54;30.40;78.10
30825;DHT22;17550;45.486;12.222;2023-05-23T11:16:27;30.40;78.30
30825;DHT22;17550;45.486;12.222;2023-05-23T11:22:00;30.40;78.40
30825;DHT22;17550;45.486;12.222;2023-05-23T11:30:16;30.60;76.70
30825;DHT22;17550;45.486;12.222;2023-05-23T11:32:49;30.70;74.70
30825;DHT22;17550;45.486;12.222;2023-05-23T11:35:16;30.80;73.50
30825;DHT22;17550;45.486;12.222;2023-05-23T11:37:42;30.70;75.40
30825;DHT22;17550;45.486;12.222;2023-05-23T11:40:28;30.60;74.50
30825;DHT22;17550;45.486;12.222;2023-05-23T11:42:55;30.60;74.40
30825;DHT22;17550;45.486;12.222;2023-05-23T11:45:22;30.60;74.70
30825;DHT22;17550;45.486;12.222;2023-05-23T11:47:48;30.60;75.00
30825;DHT22;17550;45.486;12.222;2023-05-23T11:50:14;30.60;74.90
30825;DHT22;17550;45.486;12.222;2023-05-23T11:52:40;30.80;74.70
30825;DHT22;17550;45.486;12.222;2023-05-23T11:55:07;30.80;75.30
30825;DHT22;17550;45.486;12.222;2023-05-23T11:57:37;30.70;76.30
30825;DHT22;17550;45.486;12.222;2023-05-23T12:00:05;30.90;75.20
30825;DHT22;17550;45.486;12.222;2023-05-23T12:02:37;31.00;75.10
30825;DHT22;17550;45.486;12.222;2023-05-23T12:05:08;31.00;73.30
30825;DHT22;17550;45.486;12.222;2023-05-23T12:07:35;30.90;74.60
30825;DHT22;17550;45.486;12.222;2023-05-23T12:10:03;30.90;75.00
30825;DHT22;17550;45.486;12.222;2023-05-23T12:12:31;30.80;74.10
30825;DHT22;17550;45.486;12.222;2023-05-23T12:14:57;30.80;74.90
30825;DHT22;17550;45.486;12.222;2023-05-23T12:17:23;30.80;76.10
30825;DHT22;17550;45.486;12.222;2023-05-23T12:19:49;30.80;75.80
30825;DHT22;17550;45.486;12.222;2023-05-23T12:22:24;30.80;74.50
30825;DHT22;17550;45.486;12.222;2023-05-23T12:24:54;31.00;75.50
30825;DHT22;17550;45.486;12.222;2023-05-23T12:27:26;31.00;74.50
30825;DHT22;17550;45.486;12.222;2023-05-23T12:30:10;31.10;74.90
30825;DHT22;17550;45.486;12.222;2023-05-23T12:32:40;31.00;74.40
30825;DHT22;17550;45.486;12.222;2023-05-23T12:35:07;31.00;75.10
30825;DHT22;17550;45.486;12.222;2023-05-23T12:37:33;30.90;74.50
30825;DHT22;17550;45.486;12.222;2023-05-23T12:40:13;31.00;74.70
30825;DHT22;17550;45.486;12.222;2023-05-23T12:42:49;31.00;74.50
30825;DHT22;17550;45.486;12.222;2023-05-23T12:45:31;31.10;74.00
30825;DHT22;17550;45.486;12.222;2023-05-23T12:47:58;31.20;75.40
30825;DHT22;17550;45.486;12.222;2023-05-23T12:50:24;31.10;73.70
30825;DHT22;17550;45.486;12.222;2023-05-23T12:52:50;31.10;74.10
30825;DHT22;17550;45.486;12.222;2023-05-23T12:55:16;31.10;72.30
30825;DHT22;17550;45.486;12.222;2023-05-23T12:57:42;31.20;72.60
30825;DHT22;17550;45.486;12.222;2023-05-23T13:00:09;31.10;73.30
30825;DHT22;17550;45.486;12.222;2023-05-23T13:02:35;31.00;73.60
30825;DHT22;17550;45.486;12.222;2023-05-23T13:05:01;31.00;72.90
30825;DHT22;17550;45.486;12.222;2023-05-23T13:07:26;31.10;72.90
30825;DHT22;17550;45.486;12.222;2023-05-23T13:09:52;30.90;72.60
30825;DHT22;17550;45.486;12.222;2023-05-23T13:12:18;30.90;72.90
30825;DHT22;17550;45.486;12.222;2023-05-23T13:14:44;30.90;73.70
30825;DHT22;17550;45.486;12.222;2023-05-23T13:17:09;31.10;73.50
30825;DHT22;17550;45.486;12.222;2023-05-23T13:19:35;31.10;73.20
30825;DHT22;17550;45.486;12.222;2023-05-23T13:22:01;31.20;72.80
30825;DHT22;17550;45.486;12.222;2023-05-23T13:24:29;31.20;72.00
30825;DHT22;17550;45.486;12.222;2023-05-23T13:26:55;31.30;71.70
30825;DHT22;17550;45.486;12.222;2023-05-23T13:29:20;31.30;71.20
30825;DHT22;17550;45.486;12.222;2023-05-23T13:31:46;31.20;72.10
30825;DHT22;17550;45.486;12.222;2023-05-23T13:34:12;31.20;72.40
30825;DHT22;17550;45.486;12.222;2023-05-23T13:36:38;31.20;71.40
30825;DHT22;17550;45.486;12.222;2023-05-23T13:39:04;31.30;71.80
30825;DHT22;17550;45.486;12.222;2023-05-23T13:41:30;31.20;71.20
30825;DHT22;17550;45.486;12.222;2023-05-23T13:43:56;31.20;71.00
30825;DHT22;17550;45.486;12.222;2023-05-23T13:46:21;31.10;69.80
30825;DHT22;17550;45.486;12.222;2023-05-23T13:48:47;31.10;70.10
30825;DHT22;17550;45.486;12.222;2023-05-23T13:51:13;31.10;69.70
30825;DHT22;17550;45.486;12.222;2023-05-23T13:53:38;31.20;70.30
30825;DHT22;17550;45.486;12.222;2023-05-23T13:56:04;31.20;71.30
30825;DHT22;17550;45.486;12.222;2023-05-23T13:58:31;31.20;70.80
30825;DHT22;17550;45.486;12.222;2023-05-23T14:00:57;31.20;70.60
30825;DHT22;17550;45.486;12.222;2023-05-23T14:03:23;31.20;68.60
30825;DHT22;17550;45.486;12.222;2023-05-23T14:05:49;31.10;67.60
30825;DHT22;17550;45.486;12.222;2023-05-23T14:08:15;31.00;67.20
30825;DHT22;17550;45.486;12.222;2023-05-23T14:10:41;30.90;67.00
30825;DHT22;17550;45.486;12.222;2023-05-23T14:13:07;30.90;67.90
30825;DHT22;17550;45.486;12.222;2023-05-23T14:15:33;31.00;66.30
30825;DHT22;17550;45.486;12.222;2023-05-23T14:17:59;31.10;66.90
30825;DHT22;17550;45.486;12.222;2023-05-23T14:20:25;31.10;67.90
30825;DHT22;17550;45.486;12.222;2023-05-23T14:22:51;31.20;67.30
30825;DHT22;17550;45.486;12.222;2023-05-23T14:25:17;31.30;67.60
30825;DHT22;17550;45.486;12.222;2023-05-23T14:27:43;31.20;67.00
30825;DHT22;17550;45.486;12.222;2023-05-23T14:30:09;31.20;67.00
30825;DHT22;17550;45.486;12.222;2023-05-23T14:32:35;31.20;67.40
30825;DHT22;17550;45.486;12.222;2023-05-23T14:35:08;31.20;66.90
30825;DHT22;17550;45.486;12.222;2023-05-23T14:37:34;31.20;66.50
30825;DHT22;17550;45.486;12.222;2023-05-23T14:40:00;31.30;67.90
30825;DHT22;17550;45.486;12.222;2023-05-23T14:42:26;31.30;68.20
30825;DHT22;17550;45.486;12.222;2023-05-23T14:44:52;31.30;68.60
30825;DHT22;17550;45.486;12.222;2023-05-23T14:47:19;31.30;69.10
30825;DHT22;17550;45.486;12.222;2023-05-23T14:49:45;31.30;68.50
30825;DHT22;17550;45.486;12.222;2023-05-23T14:52:11;31.20;66.90
30825;DHT22;17550;45.486;12.222;2023-05-23T14:54:37;31.20;68.40
30825;DHT22;17550;45.486;12.222;2023-05-23T14:57:08;31.10;68.50
30825;DHT22;17550;45.486;12.222;2023-05-23T14:59:34;31.10;67.90
30825;DHT22;17550;45.486;12.222;2023-05-23T15:02:04;31.10;67.30
30825;DHT22;17550;45.486;12.222;2023-05-23T15:04:33;31.10;67.40
30825;DHT22;17550;45.486;12.222;2023-05-23T15:06:59;31.10;67.90
30825;DHT22;17550;45.486;12.222;2023-05-23T15:09:26;31.10;68.00
30825;DHT22;17550;45.486;12.222;2023-05-23T15:11:52;31.00;68.50
30825;DHT22;17550;45.486;12.222;2023-05-23T15:14:19;30.90;68.10
30825;DHT22;17550;45.486;12.222;2023-05-23T15:16:46;31.10;68.50
30825;DHT22;17550;45.486;12.222;2023-05-23T15:19:13;31.10;67.10
30825;DHT22;17550;45.486;12.222;2023-05-23T15:21:38;31.10;67.20
30825;DHT22;17550;45.486;12.222;2023-05-23T15:24:05;31.10;66.60
30825;DHT22;17550;45.486;12.222;2023-05-23T15:26:31;31.00;66.30
30825;DHT22;17550;45.486;12.222;2023-05-23T15:28:56;31.00;66.60
30825;DHT22;17550;45.486;12.222;2023-05-23T15:31:22;31.10;66.90
30825;DHT22;17550;45.486;12.222;2023-05-23T15:33:48;31.10;67.20
30825;DHT22;17550;45.486;12.222;2023-05-23T15:36:13;31.10;67.90
30825;DHT22;17550;45.486;12.222;2023-05-23T15:38:39;31.10;68.50